createdAt,value
2022-10-12T00:01:04.750Z,99362.22
2022-10-12T00:03:31.496Z,99358.03
2022-10-12T00:05:57.592Z,99360.41
2022-10-12T00:08:23.705Z,99358.09
2022-10-12T00:10:50.103Z,99362.09
2022-10-12T00:13:16.214Z,99361.16
2022-10-12T00:15:42.290Z,99364.25
2022-10-12T00:18:08.408Z,99356.34
2022-10-12T00:20:34.504Z,99359.94
2022-10-12T00:23:00.594Z,99352.75
2022-10-12T00:25:26.723Z,99358.63
2022-10-12T00:27:52.812Z,99359.22
2022-10-12T00:30:18.898Z,99358.25
2022-10-12T00:32:45.010Z,99352.38
2022-10-12T00:35:11.103Z,99355.34
2022-10-12T00:37:37.420Z,99355.44
2022-10-12T00:40:03.885Z,99355.06
2022-10-12T00:42:29.968Z,99352.03
2022-10-12T00:44:56.054Z,99350.72
2022-10-12T00:47:22.159Z,99347.84
2022-10-12T00:49:48.252Z,99355.13
2022-10-12T00:52:14.347Z,99354.56
2022-10-12T00:54:40.449Z,99354.50
2022-10-12T00:57:06.556Z,99363.34
2022-10-12T00:59:32.660Z,99360.25
2022-10-12T01:01:58.779Z,99358.78
2022-10-12T01:04:24.855Z,99354.59
2022-10-12T01:06:50.944Z,99352.50
2022-10-12T01:09:17.381Z,99352.78
2022-10-12T01:11:43.480Z,99355.53
2022-10-12T01:14:09.569Z,99350.03
2022-10-12T01:16:36.163Z,99354.25
2022-10-12T01:19:02.241Z,99358.25
2022-10-12T01:21:28.335Z,99359.09
2022-10-12T01:23:54.428Z,99345.50
2022-10-12T01:26:20.535Z,99350.41
2022-10-12T01:28:46.709Z,99343.34
2022-10-12T01:31:12.905Z,99340.19
2022-10-12T01:33:38.993Z,99336.59
2022-10-12T01:36:05.083Z,99334.22
2022-10-12T01:38:31.201Z,99333.97
2022-10-12T01:40:57.278Z,99332.91
2022-10-12T01:43:23.383Z,99324.66
2022-10-12T01:45:49.476Z,99329.00
2022-10-12T01:48:15.563Z,99329.22
2022-10-12T01:50:41.644Z,99326.25
2022-10-12T01:53:07.772Z,99319.19
2022-10-12T01:55:33.861Z,99317.78
2022-10-12T01:57:59.997Z,99323.63
2022-10-12T02:00:26.109Z,99318.84
2022-10-12T02:02:52.269Z,99316.22
2022-10-12T02:05:18.378Z,99322.66
2022-10-12T02:07:44.472Z,99313.47
2022-10-12T02:10:10.567Z,99320.47
2022-10-12T02:12:36.681Z,99319.06
2022-10-12T02:15:02.793Z,99322.53
2022-10-12T02:17:28.886Z,99319.31
2022-10-12T02:19:54.982Z,99316.31
2022-10-12T02:22:21.099Z,99314.63
2022-10-12T02:24:47.185Z,99306.28
2022-10-12T02:27:13.274Z,99297.81
2022-10-12T02:29:39.381Z,99300.69
2022-10-12T02:32:05.455Z,99291.84
2022-10-12T02:34:31.557Z,99293.59
2022-10-12T02:36:57.696Z,99291.91
2022-10-12T02:39:23.791Z,99287.28
2022-10-12T02:41:49.877Z,99291.69
2022-10-12T02:44:16.001Z,99286.66
2022-10-12T02:46:42.093Z,99288.22
2022-10-12T02:49:08.175Z,99285.22
2022-10-12T02:51:34.289Z,99287.25
2022-10-12T02:54:00.372Z,99282.94
2022-10-12T02:56:26.467Z,99276.13
2022-10-12T02:58:52.564Z,99275.78
2022-10-12T03:01:18.706Z,99278.75
2022-10-12T03:03:44.868Z,99276.38
2022-10-12T03:06:10.968Z,99272.00
2022-10-12T03:08:37.050Z,99268.31
2022-10-12T03:11:03.177Z,99273.94
2022-10-12T03:13:29.661Z,99256.72
2022-10-12T03:15:55.768Z,99267.88
2022-10-12T03:18:21.860Z,99264.66
2022-10-12T03:20:48.021Z,99261.09
2022-10-12T03:23:14.111Z,99267.03
2022-10-12T03:25:40.192Z,99260.31
2022-10-12T03:28:06.322Z,99266.06
2022-10-12T03:30:32.411Z,99249.78
2022-10-12T03:32:58.499Z,99252.31
2022-10-12T03:35:24.596Z,99256.84
2022-10-12T03:37:50.689Z,99255.38
2022-10-12T03:40:16.783Z,99258.28
2022-10-12T03:42:42.908Z,99253.56
2022-10-12T03:45:08.994Z,99250.13
2022-10-12T03:47:35.226Z,99256.00
2022-10-12T03:50:01.519Z,99250.06
2022-10-12T03:52:27.620Z,99245.88
2022-10-12T03:54:53.721Z,99240.03
2022-10-12T03:57:19.833Z,99249.09
2022-10-12T03:59:45.927Z,99245.38
2022-10-12T04:02:16.563Z,99242.41
2022-10-12T04:04:43.108Z,99249.56
2022-10-12T04:07:09.198Z,99249.06
2022-10-12T04:09:35.295Z,99246.03
2022-10-12T04:12:01.413Z,99245.09
2022-10-12T04:14:27.509Z,99242.59
2022-10-12T04:16:53.609Z,99247.09
2022-10-12T04:19:19.715Z,99241.41
2022-10-12T04:21:45.806Z,99236.00
2022-10-12T04:24:11.900Z,99227.38
2022-10-12T04:26:38.301Z,99227.63
2022-10-12T04:29:04.386Z,99229.34
2022-10-12T04:31:30.479Z,99228.03
2022-10-12T04:33:56.840Z,99228.31
2022-10-12T04:36:23.264Z,99222.78
2022-10-12T04:38:49.436Z,99224.19
2022-10-12T04:41:15.551Z,99228.13
2022-10-12T04:43:41.664Z,99233.34
2022-10-12T04:46:07.761Z,99219.53
2022-10-12T04:48:33.874Z,99224.19
2022-10-12T04:50:59.950Z,99233.28
2022-10-12T04:53:26.045Z,99228.03
2022-10-12T04:55:52.136Z,99229.34
2022-10-12T04:58:18.242Z,99219.66
2022-10-12T05:00:44.334Z,99221.41
2022-10-12T05:03:10.442Z,99216.53
2022-10-12T05:05:36.539Z,99217.97
2022-10-12T05:08:02.634Z,99223.94
2022-10-12T05:10:28.736Z,99218.69
2022-10-12T05:12:54.817Z,99217.75
2022-10-12T05:15:20.918Z,99213.19
2022-10-12T05:17:47.039Z,99216.78
2022-10-12T05:20:13.132Z,99215.81
2022-10-12T05:22:39.228Z,99220.03
2022-10-12T05:25:05.544Z,99230.94
2022-10-12T05:27:31.648Z,99217.56
2022-10-12T05:29:57.748Z,99215.16
2022-10-12T05:32:23.879Z,99215.41
2022-10-12T05:34:49.977Z,99221.97
2022-10-12T05:37:16.070Z,99215.16
2022-10-12T05:39:42.180Z,99209.91
2022-10-12T05:42:08.273Z,99217.53
2022-10-12T05:44:34.373Z,99222.34
2022-10-12T05:47:00.492Z,99217.69
2022-10-12T05:49:26.609Z,99220.09
2022-10-12T05:51:52.698Z,99220.91
2022-10-12T05:54:18.802Z,99217.69
2022-10-12T05:56:44.883Z,99224.00
2022-10-12T05:59:10.970Z,99211.78
2022-10-12T06:01:37.102Z,99211.97
2022-10-12T06:04:03.227Z,99212.13
2022-10-12T06:06:29.344Z,99214.41
2022-10-12T06:08:55.458Z,99221.22
2022-10-12T06:11:21.539Z,99221.94
2022-10-12T06:13:47.621Z,99226.41
2022-10-12T06:16:13.751Z,99231.38
2022-10-12T06:18:39.849Z,99227.94
2022-10-12T06:21:31.902Z,99216.69
2022-10-12T06:23:52.025Z,99220.66
2022-10-12T06:26:18.121Z,99217.31
2022-10-12T06:28:44.273Z,99229.00
2022-10-12T06:31:10.717Z,99222.91
2022-10-12T06:33:36.796Z,99227.34
2022-10-12T06:36:02.875Z,99235.72
2022-10-12T06:38:28.984Z,99228.03
2022-10-12T06:40:55.089Z,99232.31
2022-10-12T06:43:21.182Z,99234.59
2022-10-12T06:45:47.272Z,99240.81
2022-10-12T06:48:18.243Z,99239.84
2022-10-12T06:50:44.720Z,99246.19
2022-10-12T06:53:10.823Z,99236.28
2022-10-12T06:55:36.900Z,99238.34
2022-10-12T06:58:02.985Z,99239.66
2022-10-12T07:00:29.080Z,99243.13
2022-10-12T07:02:55.777Z,99233.69
2022-10-12T07:05:21.913Z,99235.03
2022-10-12T07:07:48.027Z,99236.94
2022-10-12T07:10:14.124Z,99238.25
2022-10-12T07:12:40.479Z,99230.84
2022-10-12T07:15:06.786Z,99238.03
2022-10-12T07:17:32.893Z,99233.84
2022-10-12T07:19:58.981Z,99234.34
2022-10-12T07:22:25.117Z,99227.16
2022-10-12T07:24:51.203Z,99234.31
2022-10-12T07:27:17.325Z,99225.25
2022-10-12T07:29:43.423Z,99231.22
2022-10-12T07:32:09.532Z,99237.91
2022-10-12T07:34:35.633Z,99232.28
2022-10-12T07:37:01.800Z,99232.66
2022-10-12T07:39:27.904Z,99241.16
2022-10-12T07:41:54.103Z,99238.06
2022-10-12T07:44:20.984Z,99230.63
2022-10-12T07:46:47.229Z,99227.16
2022-10-12T07:49:13.333Z,99235.06
2022-10-12T07:51:39.427Z,99231.00
2022-10-12T07:54:05.537Z,99228.94
2022-10-12T07:56:31.644Z,99237.41
2022-10-12T07:58:57.807Z,99231.16
2022-10-12T08:01:23.979Z,99229.00
2022-10-12T08:03:50.125Z,99227.81
2022-10-12T08:06:16.276Z,99230.53
2022-10-12T08:08:42.378Z,99228.47
2022-10-12T08:11:08.502Z,99238.63
2022-10-12T08:13:34.633Z,99241.47
2022-10-12T08:16:00.737Z,99235.31
2022-10-12T08:18:26.883Z,99242.56
2022-10-12T08:20:53.013Z,99239.19
2022-10-12T08:23:19.109Z,99243.13
2022-10-12T08:25:45.185Z,99243.19
2022-10-12T08:28:11.336Z,99239.66
2022-10-12T08:30:37.673Z,99238.59
2022-10-12T08:33:06.918Z,99231.84
2022-10-12T08:35:36.325Z,99225.28
2022-10-12T08:38:02.429Z,99236.44
2022-10-12T08:40:28.521Z,99236.84
2022-10-12T08:42:54.644Z,99232.31
2022-10-12T08:45:20.725Z,99227.66
2022-10-12T08:47:46.834Z,99231.03
2022-10-12T08:50:12.947Z,99225.91
2022-10-12T08:52:39.299Z,99229.13
2022-10-12T08:55:05.603Z,99230.28
2022-10-12T08:57:31.696Z,99222.22
2022-10-12T08:59:57.835Z,99229.19
2022-10-12T09:02:23.923Z,99220.00
2022-10-12T09:04:50.041Z,99224.44
2022-10-12T09:07:16.150Z,99221.78
2022-10-12T09:09:43.910Z,99228.88
2022-10-12T09:12:10.261Z,99227.91
2022-10-12T09:14:36.509Z,99231.50
2022-10-12T09:17:02.636Z,99233.84
2022-10-12T09:19:28.781Z,99233.66
2022-10-12T09:21:54.861Z,99237.13
2022-10-12T09:24:20.962Z,99230.00
2022-10-12T09:26:47.079Z,99234.41
2022-10-12T09:29:13.177Z,99232.25
2022-10-12T09:31:39.277Z,99227.28
2022-10-12T09:34:05.385Z,99221.50
2022-10-12T09:36:31.466Z,99219.38
2022-10-12T09:38:57.569Z,99223.31
2022-10-12T09:41:24.048Z,99223.63
2022-10-12T09:43:50.133Z,99219.91
2022-10-12T09:46:16.214Z,99224.66
2022-10-12T09:48:45.790Z,99222.75
2022-10-12T09:51:13.912Z,99224.19
2022-10-12T09:53:40.069Z,99219.16
2022-10-12T09:56:06.238Z,99215.25
2022-10-12T09:58:32.337Z,99211.50
2022-10-12T10:00:58.420Z,99206.88
2022-10-12T10:03:29.132Z,99217.38
2022-10-12T10:05:57.712Z,99207.28
2022-10-12T10:08:23.902Z,99208.78
2022-10-12T10:10:50.007Z,99210.50
2022-10-12T10:13:16.114Z,99205.09
2022-10-12T10:15:42.211Z,99206.13
2022-10-12T10:18:08.320Z,99201.16
2022-10-12T10:20:34.474Z,99211.13
2022-10-12T10:23:00.555Z,99215.28
2022-10-12T10:25:26.689Z,99218.81
2022-10-12T10:27:52.867Z,99217.66
2022-10-12T10:30:29.755Z,99222.97
2022-10-12T10:32:58.125Z,99225.34
2022-10-12T10:35:24.215Z,99208.72
2022-10-12T10:37:50.329Z,99214.38
2022-10-12T10:40:16.692Z,99213.72
2022-10-12T10:42:42.944Z,99213.41
2022-10-12T10:45:09.050Z,99211.56
2022-10-12T10:47:35.449Z,99210.25
2022-10-12T10:50:01.546Z,99208.28
2022-10-12T10:52:27.660Z,99205.28
2022-10-12T10:54:53.796Z,99209.13
2022-10-12T10:57:19.881Z,99211.09
2022-10-12T10:59:45.964Z,99202.81
2022-10-12T11:02:12.064Z,99209.81
2022-10-12T11:04:38.144Z,99200.47
2022-10-12T11:07:04.242Z,99208.97
2022-10-12T11:09:30.357Z,99202.63
2022-10-12T11:11:56.455Z,99200.28
2022-10-12T11:14:22.549Z,99196.47
2022-10-12T11:16:48.659Z,99198.28
2022-10-12T11:19:14.765Z,99197.81
2022-10-12T11:21:40.907Z,99196.97
2022-10-12T11:24:07.681Z,99194.66
2022-10-12T11:26:33.783Z,99187.81
2022-10-12T11:28:59.876Z,99185.31
2022-10-12T11:31:25.973Z,99188.28
2022-10-12T11:33:52.077Z,99180.59
2022-10-12T11:36:18.192Z,99177.06
2022-10-12T11:38:44.313Z,99178.91
2022-10-12T11:43:56.492Z,99172.25
2022-10-12T11:46:22.579Z,99170.41
2022-10-12T11:48:48.661Z,99172.25
2022-10-12T11:51:14.799Z,99179.72
2022-10-12T11:53:40.886Z,99173.69
2022-10-12T11:56:07.004Z,99175.13
2022-10-12T11:58:55.909Z,99156.75
2022-10-12T12:01:19.184Z,99154.25
2022-10-12T12:03:45.352Z,99153.34
2022-10-12T12:06:11.464Z,99155.16
2022-10-12T12:08:37.587Z,99148.44
2022-10-12T12:13:53.859Z,99154.28
2022-10-12T12:16:20.010Z,99156.06
2022-10-12T12:18:46.110Z,99148.44
2022-10-12T12:21:12.229Z,99150.59
2022-10-12T12:23:38.343Z,99143.53
2022-10-12T12:26:06.145Z,99147.34
2022-10-12T12:28:32.301Z,99148.34
2022-10-12T12:30:58.429Z,99141.97
2022-10-12T12:33:24.525Z,99143.09
2022-10-12T12:35:50.637Z,99133.38
2022-10-12T12:38:16.730Z,99130.00
2022-10-12T12:40:42.834Z,99129.22
2022-10-12T12:43:08.939Z,99123.34
2022-10-12T12:45:35.038Z,99125.97
2022-10-12T12:48:01.152Z,99116.13
2022-10-12T12:50:27.343Z,99129.38
2022-10-12T12:52:53.438Z,99123.13
2022-10-12T12:55:19.516Z,99125.44
2022-10-12T12:57:45.616Z,99128.69
2022-10-12T13:00:11.725Z,99122.69
2022-10-12T13:02:37.817Z,99121.50
2022-10-12T13:05:03.921Z,99121.22
2022-10-12T13:07:30.193Z,99124.91
2022-10-12T13:09:56.460Z,99125.19
2022-10-12T13:12:22.570Z,99112.56
2022-10-12T13:14:48.662Z,99123.84
2022-10-12T13:20:01.021Z,99115.72
2022-10-12T13:22:27.149Z,99111.41
2022-10-12T13:24:53.402Z,99108.63
2022-10-12T13:27:19.524Z,99117.47
2022-10-12T13:29:45.677Z,99103.94
2022-10-12T13:32:12.074Z,99109.44
2022-10-12T13:34:38.194Z,99093.22
2022-10-12T13:37:04.290Z,99099.31
2022-10-12T13:39:31.587Z,99098.47
2022-10-12T13:42:00.223Z,99100.88
2022-10-12T13:44:26.351Z,99108.59
2022-10-12T13:46:52.450Z,99106.78
2022-10-12T13:49:18.573Z,99094.13
2022-10-12T13:51:44.669Z,99097.56
2022-10-12T13:54:10.756Z,99096.34
2022-10-12T13:56:36.868Z,99091.22
2022-10-12T13:59:05.428Z,99093.16
2022-10-12T14:01:34.874Z,99088.38
2022-10-12T14:04:00.993Z,99083.38
2022-10-12T14:06:27.102Z,99077.31
2022-10-12T14:08:53.201Z,99064.50
2022-10-12T14:11:19.325Z,99066.84
2022-10-12T14:13:45.422Z,99055.66
2022-10-12T14:16:11.495Z,99053.00
2022-10-12T14:18:37.609Z,99058.91
2022-10-12T14:21:03.738Z,99064.88
2022-10-12T14:23:29.844Z,99056.25
2022-10-12T14:25:56.477Z,99047.63
2022-10-12T14:28:22.582Z,99047.06
2022-10-12T14:30:48.680Z,99045.56
2022-10-12T14:33:14.798Z,99030.47
2022-10-12T14:35:40.925Z,99047.72
2022-10-12T14:38:07.012Z,99037.63
2022-10-12T14:40:33.172Z,99032.19
2022-10-12T14:42:59.272Z,99031.22
2022-10-12T14:45:25.362Z,99025.81
2022-10-12T14:47:51.486Z,99020.47
2022-10-12T14:50:17.568Z,99018.03
2022-10-12T14:52:43.673Z,99029.25
2022-10-12T14:55:09.786Z,99025.56
2022-10-12T14:57:35.873Z,99019.44
2022-10-12T15:00:01.966Z,99013.34
2022-10-12T15:02:28.059Z,99014.16
2022-10-12T15:04:54.144Z,99012.63
2022-10-12T15:07:20.243Z,99019.38
2022-10-12T15:09:46.367Z,99017.03
2022-10-12T15:12:12.482Z,99012.72
2022-10-12T15:14:38.622Z,99008.94
2022-10-12T15:17:04.738Z,99013.66
2022-10-12T15:19:30.834Z,99005.78
2022-10-12T15:21:56.945Z,99010.59
2022-10-12T15:24:23.106Z,98999.66
2022-10-12T15:26:49.382Z,99001.13
2022-10-12T15:29:15.500Z,99002.34
2022-10-12T15:31:41.614Z,98995.97
2022-10-12T15:34:07.708Z,98996.75
2022-10-12T15:36:33.804Z,98996.56
2022-10-12T15:38:59.908Z,98987.91
2022-10-12T15:41:26.006Z,98993.25
2022-10-12T15:43:52.112Z,98987.34
2022-10-12T15:46:18.214Z,98994.47
2022-10-12T15:48:44.306Z,98989.47
2022-10-12T15:51:10.516Z,98989.44
2022-10-12T15:53:36.652Z,98988.75
2022-10-12T15:56:02.744Z,98992.06
2022-10-12T15:58:28.930Z,98984.34
2022-10-12T16:00:55.112Z,98978.38
2022-10-12T16:03:25.633Z,98989.06
2022-10-12T16:05:52.276Z,98992.09
2022-10-12T16:08:18.401Z,98982.47
2022-10-12T16:10:44.498Z,98976.97
2022-10-12T16:13:10.591Z,98981.84
2022-10-12T16:15:36.921Z,98987.66
2022-10-12T16:18:03.062Z,98977.28
2022-10-12T16:20:29.147Z,98983.56
2022-10-12T16:22:55.270Z,98979.03
2022-10-12T16:25:21.381Z,98988.41
2022-10-12T16:27:47.474Z,98983.44
2022-10-12T16:30:14.085Z,98982.53
2022-10-12T16:32:40.243Z,98980.50
2022-10-12T16:35:06.341Z,98975.25
2022-10-12T16:37:32.457Z,98979.19
2022-10-12T16:39:58.568Z,98978.91
2022-10-12T16:42:24.663Z,98970.63
2022-10-12T16:44:50.799Z,98970.97
2022-10-12T16:47:16.904Z,98967.09
2022-10-12T16:49:42.991Z,98957.44
2022-10-12T16:52:09.098Z,98956.97
2022-10-12T16:54:35.194Z,98971.69
2022-10-12T16:57:01.294Z,98955.13
2022-10-12T16:59:27.410Z,98958.84
2022-10-12T17:01:53.501Z,98957.53
2022-10-12T17:04:19.584Z,98963.31
2022-10-12T17:06:45.697Z,98968.00
2022-10-12T17:09:11.794Z,98974.31
2022-10-12T17:11:37.870Z,98976.94
2022-10-12T17:14:03.984Z,98979.97
2022-10-12T17:16:30.089Z,98980.47
2022-10-12T17:18:59.416Z,98996.31
2022-10-12T17:21:26.335Z,99000.16
2022-10-12T17:23:52.434Z,98990.84
2022-10-12T17:26:18.714Z,98971.91
2022-10-12T17:28:44.889Z,98982.03
2022-10-12T17:31:11.927Z,98982.25
2022-10-12T17:33:38.152Z,98972.09
2022-10-12T17:36:04.318Z,98962.97
2022-10-12T17:38:30.423Z,98988.38
2022-10-12T17:40:56.526Z,98991.38
2022-10-12T17:43:22.699Z,98991.59
2022-10-12T17:45:48.827Z,99012.44
2022-10-12T17:48:14.931Z,99009.69
2022-10-12T17:50:41.032Z,98998.69
2022-10-12T17:53:07.133Z,99003.53
2022-10-12T17:55:48.274Z,99009.72
2022-10-12T17:58:15.101Z,99011.53
2022-10-12T18:00:41.253Z,99028.47
2022-10-12T18:03:07.412Z,99022.00
2022-10-12T18:05:33.521Z,99008.88
2022-10-12T18:07:59.654Z,99013.38
2022-10-12T18:10:27.787Z,99026.97
2022-10-12T18:12:54.956Z,99024.66
2022-10-12T18:15:21.041Z,99033.78
2022-10-12T18:17:47.132Z,99030.66
2022-10-12T18:20:13.276Z,99026.00
2022-10-12T18:22:39.369Z,99028.34
2022-10-12T18:25:05.486Z,99020.88
2022-10-12T18:27:31.597Z,99013.56
2022-10-12T18:29:57.686Z,99018.69
2022-10-12T18:32:23.770Z,99009.41
2022-10-12T18:34:49.871Z,99016.22
2022-10-12T18:37:15.952Z,99006.25
2022-10-12T18:39:42.071Z,99004.88
2022-10-12T18:42:08.192Z,99005.06
2022-10-12T18:44:34.295Z,99005.06
2022-10-12T18:47:00.455Z,99000.94
2022-10-12T18:49:26.555Z,98993.97
2022-10-12T18:51:52.658Z,99007.56
2022-10-12T18:54:18.815Z,99001.75
2022-10-12T18:56:44.933Z,99000.88
2022-10-12T18:59:11.024Z,99007.84
2022-10-12T19:01:37.153Z,98993.06
2022-10-12T19:04:03.278Z,98987.72
2022-10-12T19:06:29.391Z,98999.47
2022-10-12T19:08:55.535Z,98997.84
2022-10-12T19:11:21.671Z,99000.03
2022-10-12T19:13:47.766Z,98995.03
2022-10-12T19:16:13.876Z,98998.81
2022-10-12T19:18:39.996Z,98997.38
2022-10-12T19:21:06.089Z,98983.94
2022-10-12T19:23:32.186Z,98979.78
2022-10-12T19:25:58.735Z,98976.03
2022-10-12T19:28:24.853Z,98985.81
2022-10-12T19:30:50.975Z,98976.38
2022-10-12T19:33:17.199Z,98976.16
2022-10-12T19:35:43.302Z,98974.53
2022-10-12T19:38:09.398Z,98966.91
2022-10-12T19:40:36.141Z,98967.59
2022-10-12T19:43:02.237Z,98969.84
2022-10-12T19:45:28.398Z,98971.19
2022-10-12T19:47:54.519Z,98972.69
2022-10-12T19:50:20.636Z,98964.53
2022-10-12T19:52:46.738Z,98964.72
2022-10-12T19:55:12.847Z,98961.75
2022-10-12T19:57:39.067Z,98966.03
2022-10-12T20:00:05.173Z,98962.50
2022-10-12T20:02:31.304Z,98957.19
2022-10-12T20:04:57.393Z,98960.53
2022-10-12T20:07:23.489Z,98947.13
2022-10-12T20:09:49.622Z,98942.66
2022-10-12T20:12:16.000Z,98954.75
2022-10-12T20:14:42.360Z,98948.94
2022-10-12T20:17:08.491Z,98962.06
2022-10-12T20:19:34.585Z,98966.38
2022-10-12T20:22:00.676Z,98966.38
2022-10-12T20:24:26.799Z,98959.91
2022-10-12T20:26:52.881Z,98965.34
2022-10-12T20:29:18.978Z,98953.56
2022-10-12T20:31:45.078Z,98957.38
2022-10-12T20:34:11.180Z,98965.00
2022-10-12T20:36:37.264Z,98956.03
2022-10-12T20:39:03.366Z,98967.44
2022-10-12T20:41:29.497Z,98959.75
2022-10-12T20:43:55.594Z,98959.16
2022-10-12T20:46:21.994Z,98951.25
2022-10-12T20:48:48.094Z,98948.09
2022-10-12T20:51:14.169Z,98944.28
2022-10-12T20:53:40.311Z,98942.81
2022-10-12T20:56:06.417Z,98952.59
2022-10-12T20:58:32.518Z,98946.31
2022-10-12T21:00:58.653Z,98944.47
2022-10-12T21:03:24.789Z,98948.63
2022-10-12T21:05:50.966Z,98949.31
2022-10-12T21:08:17.091Z,98963.53
2022-10-12T21:10:43.202Z,98962.50
2022-10-12T21:13:09.289Z,98963.94
2022-10-12T21:15:35.395Z,98962.41
2022-10-12T21:18:01.494Z,98970.81
2022-10-12T21:20:27.590Z,98962.28
2022-10-12T21:22:53.700Z,98957.34
2022-10-12T21:25:19.814Z,98954.31
2022-10-12T21:27:45.931Z,98952.16
2022-10-12T21:30:12.376Z,98954.81
2022-10-12T21:32:38.451Z,98947.34
2022-10-12T21:35:04.546Z,98953.28
2022-10-12T21:37:30.689Z,98949.63
2022-10-12T21:39:56.784Z,98953.22
2022-10-12T21:42:22.885Z,98954.59
2022-10-12T21:44:48.984Z,98945.81
2022-10-12T21:47:18.239Z,98952.19
2022-10-12T21:49:44.621Z,98946.75
2022-10-12T21:52:10.770Z,98941.59
2022-10-12T21:54:36.841Z,98946.06
2022-10-12T21:57:02.935Z,98940.09
2022-10-12T21:59:29.039Z,98940.00
2022-10-12T22:01:55.150Z,98943.06
2022-10-12T22:04:21.233Z,98949.13
2022-10-12T22:06:47.345Z,98942.47
2022-10-12T22:09:13.442Z,98942.59
2022-10-12T22:11:39.540Z,98941.22
2022-10-12T22:14:05.647Z,98952.22
2022-10-12T22:16:31.750Z,98945.63
2022-10-12T22:18:57.841Z,98944.94
2022-10-12T22:21:23.953Z,98945.94
2022-10-12T22:23:50.071Z,98956.00
2022-10-12T22:26:16.174Z,98945.34
2022-10-12T22:28:42.335Z,98946.25
2022-10-12T22:31:08.481Z,98951.22
2022-10-12T22:33:34.575Z,98944.75
2022-10-12T22:36:01.493Z,98946.38
2022-10-12T22:38:27.574Z,98943.75
2022-10-12T22:40:53.659Z,98937.25
2022-10-12T22:43:19.761Z,98937.78
2022-10-12T22:45:45.850Z,98932.84
2022-10-12T22:48:11.946Z,98932.88
2022-10-12T22:50:38.317Z,98926.81
2022-10-12T22:53:04.405Z,98925.31
2022-10-12T22:55:30.520Z,98927.94
2022-10-12T22:57:56.656Z,98922.59
2022-10-12T23:00:22.792Z,98916.16
2022-10-12T23:02:48.955Z,98921.28
2022-10-12T23:05:15.105Z,98920.63
2022-10-12T23:07:41.234Z,98925.38
2022-10-12T23:10:07.320Z,98924.25
2022-10-12T23:12:33.429Z,98921.84
2022-10-12T23:14:59.537Z,98915.94
2022-10-12T23:17:25.625Z,98914.50
2022-10-12T23:19:51.757Z,98917.38
2022-10-12T23:22:18.008Z,98916.16
2022-10-12T23:24:44.280Z,98918.00
2022-10-12T23:27:10.381Z,98920.91
2022-10-12T23:29:36.468Z,98912.41
2022-10-12T23:32:02.550Z,98910.41
2022-10-12T23:34:28.670Z,98908.19
2022-10-12T23:36:54.762Z,98916.81
2022-10-12T23:39:20.848Z,98908.59
2022-10-12T23:41:46.972Z,98910.94
2022-10-12T23:44:13.058Z,98917.31
2022-10-12T23:46:39.159Z,98908.13
2022-10-12T23:49:05.264Z,98914.09
2022-10-12T23:51:31.369Z,98905.19
2022-10-12T23:53:57.461Z,98913.22
2022-10-12T23:56:23.685Z,98905.66
2022-10-12T23:58:49.773Z,98906.03
